Hampton, Illinois
Current Conditions -  °F | °C
As of 11:52 PM on Thursday 30 Oct 2014 (Local Time) from KDVN Reporting Station
Overcast Overcast  
Wind Chill: 43°   Ceiling: 4700
Heat Index: 47°   Visibility: 10mi
Dew Point: 37°   Wind: 9mph
Humidity: 68%   Direction: 310°NW
Pressure: 30.12"   Gusts: NA
Location:  41.56°N, 90.41°W
Report Text: KDVN 310452Z AUTO 31008KT 10SM BKN047 OVC055 08/03 A3012 RMK AO2 SLP201 T00830028 TSNO
Loading
Personal Weather Stations






























Interactive Weather Map
Tropical Storm Tracking
New forecast layout! Learn more

10-Day Weather Forecast

Advertisements
Track Severe Weather on mobile